sensor_id;sensor_type;location;lat;lon;timestamp;P1;durP1;ratioP1;P2;durP2;ratioP2
21754;SDS011;11039;50.028;19.938;2023-05-10T00:00:21;6.30;;;4.97;;
21754;SDS011;11039;50.028;19.938;2023-05-10T00:02:48;6.93;;;5.28;;
21754;SDS011;11039;50.028;19.938;2023-05-10T00:05:14;7.25;;;5.07;;
21754;SDS011;11039;50.028;19.938;2023-05-10T00:07:41;7.38;;;5.10;;
21754;SDS011;11039;50.028;19.938;2023-05-10T00:10:09;8.45;;;5.28;;
21754;SDS011;11039;50.028;19.938;2023-05-10T00:12:35;6.78;;;5.30;;
21754;SDS011;11039;50.028;19.938;2023-05-10T00:15:02;7.57;;;5.20;;
21754;SDS011;11039;50.028;19.938;2023-05-10T00:17:28;7.50;;;4.97;;
21754;SDS011;11039;50.028;19.938;2023-05-10T00:19:54;6.93;;;5.30;;
21754;SDS011;11039;50.028;19.938;2023-05-10T00:22:20;6.80;;;4.45;;
21754;SDS011;11039;50.028;19.938;2023-05-10T00:24:46;5.75;;;4.95;;
21754;SDS011;11039;50.028;19.938;2023-05-10T00:27:12;8.65;;;5.28;;
21754;SDS011;11039;50.028;19.938;2023-05-10T00:29:38;6.57;;;5.03;;
21754;SDS011;11039;50.028;19.938;2023-05-10T00:32:04;7.18;;;5.45;;
21754;SDS011;11039;50.028;19.938;2023-05-10T00:34:30;5.63;;;4.90;;
21754;SDS011;11039;50.028;19.938;2023-05-10T00:36:56;5.78;;;4.57;;
21754;SDS011;11039;50.028;19.938;2023-05-10T00:39:23;6.97;;;5.22;;
21754;SDS011;11039;50.028;19.938;2023-05-10T00:41:49;6.63;;;5.15;;
21754;SDS011;11039;50.028;19.938;2023-05-10T00:44:15;6.05;;;5.00;;
21754;SDS011;11039;50.028;19.938;2023-05-10T00:46:41;9.35;;;5.22;;
21754;SDS011;11039;50.028;19.938;2023-05-10T00:49:07;6.95;;;4.95;;
21754;SDS011;11039;50.028;19.938;2023-05-10T00:51:33;6.25;;;4.85;;
21754;SDS011;11039;50.028;19.938;2023-05-10T00:53:59;6.90;;;5.30;;
21754;SDS011;11039;50.028;19.938;2023-05-10T00:56:25;6.15;;;4.50;;
21754;SDS011;11039;50.028;19.938;2023-05-10T00:58:54;6.57;;;5.00;;
21754;SDS011;11039;50.028;19.938;2023-05-10T01:01:20;5.78;;;5.07;;
21754;SDS011;11039;50.028;19.938;2023-05-10T01:03:46;6.93;;;5.07;;
21754;SDS011;11039;50.028;19.938;2023-05-10T01:06:12;6.30;;;5.13;;
21754;SDS011;11039;50.028;19.938;2023-05-10T01:08:38;5.47;;;4.65;;
21754;SDS011;11039;50.028;19.938;2023-05-10T01:11:05;6.18;;;5.10;;
21754;SDS011;11039;50.028;19.938;2023-05-10T01:13:32;5.75;;;4.90;;
21754;SDS011;11039;50.028;19.938;2023-05-10T01:15:59;5.72;;;4.72;;
21754;SDS011;11039;50.028;19.938;2023-05-10T01:18:31;7.32;;;5.00;;
21754;SDS011;11039;50.028;19.938;2023-05-10T01:24:01;5.72;;;5.13;;
21754;SDS011;11039;50.028;19.938;2023-05-10T01:34:32;6.20;;;5.03;;
21754;SDS011;11039;50.028;19.938;2023-05-10T01:37:10;6.70;;;4.90;;
21754;SDS011;11039;50.028;19.938;2023-05-10T01:39:44;6.68;;;5.20;;
21754;SDS011;11039;50.028;19.938;2023-05-10T01:42:14;5.93;;;4.80;;
21754;SDS011;11039;50.028;19.938;2023-05-10T01:47:12;6.88;;;5.38;;
21754;SDS011;11039;50.028;19.938;2023-05-10T01:49:44;6.30;;;5.03;;
21754;SDS011;11039;50.028;19.938;2023-05-10T01:52:15;6.03;;;5.00;;
21754;SDS011;11039;50.028;19.938;2023-05-10T01:54:49;5.05;;;4.50;;
21754;SDS011;11039;50.028;19.938;2023-05-10T01:57:15;6.07;;;4.72;;
21754;SDS011;11039;50.028;19.938;2023-05-10T01:59:43;5.70;;;4.50;;
21754;SDS011;11039;50.028;19.938;2023-05-10T02:02:11;5.28;;;4.32;;
21754;SDS011;11039;50.028;19.938;2023-05-10T02:04:38;6.95;;;5.18;;
21754;SDS011;11039;50.028;19.938;2023-05-10T02:07:05;6.72;;;5.07;;
21754;SDS011;11039;50.028;19.938;2023-05-10T02:09:32;6.10;;;4.50;;
21754;SDS011;11039;50.028;19.938;2023-05-10T02:11:59;5.40;;;4.60;;
21754;SDS011;11039;50.028;19.938;2023-05-10T02:14:26;7.00;;;4.82;;
21754;SDS011;11039;50.028;19.938;2023-05-10T02:16:52;5.95;;;4.72;;
21754;SDS011;11039;50.028;19.938;2023-05-10T02:19:20;6.43;;;5.18;;
21754;SDS011;11039;50.028;19.938;2023-05-10T02:21:47;7.07;;;4.80;;
21754;SDS011;11039;50.028;19.938;2023-05-10T02:24:16;5.55;;;4.65;;
21754;SDS011;11039;50.028;19.938;2023-05-10T02:26:42;6.18;;;4.85;;
21754;SDS011;11039;50.028;19.938;2023-05-10T02:29:09;7.55;;;4.78;;
21754;SDS011;11039;50.028;19.938;2023-05-10T02:31:37;8.07;;;5.13;;
21754;SDS011;11039;50.028;19.938;2023-05-10T02:34:04;7.18;;;5.72;;
21754;SDS011;11039;50.028;19.938;2023-05-10T02:36:31;9.57;;;6.05;;
21754;SDS011;11039;50.028;19.938;2023-05-10T02:38:58;7.93;;;5.53;;
21754;SDS011;11039;50.028;19.938;2023-05-10T02:41:24;9.40;;;5.85;;
21754;SDS011;11039;50.028;19.938;2023-05-10T02:43:51;12.38;;;6.38;;
21754;SDS011;11039;50.028;19.938;2023-05-10T02:46:17;10.93;;;6.13;;
21754;SDS011;11039;50.028;19.938;2023-05-10T02:48:43;8.70;;;5.80;;
21754;SDS011;11039;50.028;19.938;2023-05-10T02:51:09;9.93;;;5.95;;
21754;SDS011;11039;50.028;19.938;2023-05-10T02:53:38;19.15;;;6.85;;
21754;SDS011;11039;50.028;19.938;2023-05-10T02:56:14;9.77;;;6.80;;
21754;SDS011;11039;50.028;19.938;2023-05-10T02:58:42;10.32;;;6.43;;
21754;SDS011;11039;50.028;19.938;2023-05-10T03:01:08;10.75;;;6.18;;
21754;SDS011;11039;50.028;19.938;2023-05-10T03:03:34;10.32;;;6.38;;
21754;SDS011;11039;50.028;19.938;2023-05-10T03:06:00;8.50;;;6.32;;
21754;SDS011;11039;50.028;19.938;2023-05-10T03:08:26;9.52;;;6.43;;
21754;SDS011;11039;50.028;19.938;2023-05-10T03:15:48;10.48;;;7.03;;
21754;SDS011;11039;50.028;19.938;2023-05-10T03:18:21;14.05;;;6.70;;
21754;SDS011;11039;50.028;19.938;2023-05-10T03:20:48;11.02;;;7.07;;
21754;SDS011;11039;50.028;19.938;2023-05-10T03:25:44;9.90;;;6.65;;
21754;SDS011;11039;50.028;19.938;2023-05-10T03:28:11;11.35;;;7.63;;
21754;SDS011;11039;50.028;19.938;2023-05-10T03:30:38;12.55;;;6.90;;
21754;SDS011;11039;50.028;19.938;2023-05-10T03:33:04;11.35;;;7.30;;
21754;SDS011;11039;50.028;19.938;2023-05-10T03:35:33;12.20;;;7.38;;
21754;SDS011;11039;50.028;19.938;2023-05-10T03:38:00;11.50;;;6.78;;
21754;SDS011;11039;50.028;19.938;2023-05-10T03:40:26;9.45;;;6.90;;
21754;SDS011;11039;50.028;19.938;2023-05-10T03:42:57;13.82;;;7.22;;
21754;SDS011;11039;50.028;19.938;2023-05-10T03:45:23;12.10;;;6.72;;
21754;SDS011;11039;50.028;19.938;2023-05-10T03:47:49;10.20;;;6.88;;
21754;SDS011;11039;50.028;19.938;2023-05-10T03:50:15;9.82;;;7.32;;
21754;SDS011;11039;50.028;19.938;2023-05-10T03:52:41;10.20;;;6.93;;
21754;SDS011;11039;50.028;19.938;2023-05-10T03:55:07;11.68;;;6.85;;
21754;SDS011;11039;50.028;19.938;2023-05-10T03:57:33;8.48;;;6.38;;
21754;SDS011;11039;50.028;19.938;2023-05-10T04:00:00;10.50;;;6.78;;
21754;SDS011;11039;50.028;19.938;2023-05-10T04:02:26;11.23;;;6.38;;
21754;SDS011;11039;50.028;19.938;2023-05-10T04:04:52;11.70;;;6.82;;
21754;SDS011;11039;50.028;19.938;2023-05-10T04:07:18;11.95;;;6.20;;
21754;SDS011;11039;50.028;19.938;2023-05-10T04:09:44;14.20;;;6.28;;
21754;SDS011;11039;50.028;19.938;2023-05-10T04:12:10;12.10;;;6.68;;
21754;SDS011;11039;50.028;19.938;2023-05-10T04:14:36;13.50;;;6.93;;
21754;SDS011;11039;50.028;19.938;2023-05-10T04:17:02;10.15;;;6.82;;
21754;SDS011;11039;50.028;19.938;2023-05-10T04:19:29;10.80;;;6.57;;
21754;SDS011;11039;50.028;19.938;2023-05-10T04:21:55;13.18;;;7.47;;
21754;SDS011;11039;50.028;19.938;2023-05-10T04:24:21;11.15;;;6.90;;
21754;SDS011;11039;50.028;19.938;2023-05-10T04:26:47;14.02;;;8.57;;
21754;SDS011;11039;50.028;19.938;2023-05-10T04:29:13;11.32;;;6.80;;
21754;SDS011;11039;50.028;19.938;2023-05-10T04:31:39;11.10;;;6.80;;
21754;SDS011;11039;50.028;19.938;2023-05-10T04:34:05;12.43;;;6.70;;
21754;SDS011;11039;50.028;19.938;2023-05-10T04:36:31;12.35;;;6.85;;
21754;SDS011;11039;50.028;19.938;2023-05-10T04:39:00;12.48;;;6.53;;
21754;SDS011;11039;50.028;19.938;2023-05-10T04:41:27;10.93;;;6.22;;
21754;SDS011;11039;50.028;19.938;2023-05-10T04:43:53;14.23;;;6.60;;
21754;SDS011;11039;50.028;19.938;2023-05-10T04:46:19;9.75;;;6.65;;
21754;SDS011;11039;50.028;19.938;2023-05-10T04:48:45;12.70;;;6.65;;
21754;SDS011;11039;50.028;19.938;2023-05-10T04:51:11;9.48;;;5.80;;
21754;SDS011;11039;50.028;19.938;2023-05-10T04:53:38;11.27;;;5.70;;
21754;SDS011;11039;50.028;19.938;2023-05-10T04:56:04;13.52;;;6.28;;
21754;SDS011;11039;50.028;19.938;2023-05-10T04:58:30;9.10;;;5.55;;
21754;SDS011;11039;50.028;19.938;2023-05-10T05:00:56;12.05;;;6.40;;
21754;SDS011;11039;50.028;19.938;2023-05-10T05:03:22;12.65;;;6.10;;
21754;SDS011;11039;50.028;19.938;2023-05-10T05:05:48;11.88;;;6.45;;
21754;SDS011;11039;50.028;19.938;2023-05-10T05:08:14;9.50;;;5.90;;
21754;SDS011;11039;50.028;19.938;2023-05-10T05:10:40;12.23;;;6.68;;
21754;SDS011;11039;50.028;19.938;2023-05-10T05:13:06;10.00;;;6.43;;
21754;SDS011;11039;50.028;19.938;2023-05-10T05:15:32;9.43;;;6.20;;
21754;SDS011;11039;50.028;19.938;2023-05-10T05:17:59;11.05;;;5.57;;
21754;SDS011;11039;50.028;19.938;2023-05-10T05:20:25;10.05;;;6.65;;
21754;SDS011;11039;50.028;19.938;2023-05-10T05:22:51;13.43;;;5.85;;
21754;SDS011;11039;50.028;19.938;2023-05-10T05:25:17;9.95;;;6.18;;
21754;SDS011;11039;50.028;19.938;2023-05-10T05:27:43;11.43;;;6.55;;
21754;SDS011;11039;50.028;19.938;2023-05-10T05:30:09;11.55;;;6.35;;
21754;SDS011;11039;50.028;19.938;2023-05-10T05:32:35;8.85;;;5.95;;
21754;SDS011;11039;50.028;19.938;2023-05-10T05:35:01;11.57;;;5.90;;
21754;SDS011;11039;50.028;19.938;2023-05-10T05:37:27;9.57;;;5.88;;
21754;SDS011;11039;50.028;19.938;2023-05-10T05:39:53;10.38;;;6.25;;
21754;SDS011;11039;50.028;19.938;2023-05-10T05:42:20;9.55;;;5.88;;
21754;SDS011;11039;50.028;19.938;2023-05-10T05:44:46;9.75;;;6.25;;
21754;SDS011;11039;50.028;19.938;2023-05-10T05:47:12;8.50;;;5.50;;
21754;SDS011;11039;50.028;19.938;2023-05-10T05:49:38;7.95;;;5.93;;
21754;SDS011;11039;50.028;19.938;2023-05-10T05:52:04;10.63;;;5.85;;
21754;SDS011;11039;50.028;19.938;2023-05-10T05:54:30;10.98;;;5.57;;
21754;SDS011;11039;50.028;19.938;2023-05-10T05:56:57;10.40;;;5.80;;
21754;SDS011;11039;50.028;19.938;2023-05-10T05:59:23;9.55;;;5.53;;
21754;SDS011;11039;50.028;19.938;2023-05-10T06:01:49;8.63;;;5.70;;
21754;SDS011;11039;50.028;19.938;2023-05-10T06:04:16;12.00;;;5.57;;
21754;SDS011;11039;50.028;19.938;2023-05-10T06:06:42;9.50;;;5.63;;
21754;SDS011;11039;50.028;19.938;2023-05-10T06:09:08;7.93;;;5.00;;
21754;SDS011;11039;50.028;19.938;2023-05-10T06:11:34;8.70;;;4.95;;
21754;SDS011;11039;50.028;19.938;2023-05-10T06:14:01;7.10;;;5.07;;
21754;SDS011;11039;50.028;19.938;2023-05-10T06:16:28;8.65;;;5.07;;
21754;SDS011;11039;50.028;19.938;2023-05-10T06:18:54;10.02;;;5.55;;
21754;SDS011;11039;50.028;19.938;2023-05-10T06:21:20;7.50;;;5.45;;
21754;SDS011;11039;50.028;19.938;2023-05-10T06:26:05;7.65;;;5.00;;
21754;SDS011;11039;50.028;19.938;2023-05-10T06:28:31;9.93;;;5.30;;
21754;SDS011;11039;50.028;19.938;2023-05-10T06:30:58;6.93;;;4.78;;
21754;SDS011;11039;50.028;19.938;2023-05-10T06:33:24;9.15;;;5.10;;
21754;SDS011;11039;50.028;19.938;2023-05-10T06:35:50;9.48;;;5.00;;
21754;SDS011;11039;50.028;19.938;2023-05-10T06:38:16;7.60;;;4.82;;
21754;SDS011;11039;50.028;19.938;2023-05-10T06:40:43;9.45;;;5.30;;
21754;SDS011;11039;50.028;19.938;2023-05-10T06:43:09;7.38;;;4.68;;
21754;SDS011;11039;50.028;19.938;2023-05-10T06:45:35;6.40;;;4.57;;
21754;SDS011;11039;50.028;19.938;2023-05-10T06:48:02;6.63;;;4.65;;
21754;SDS011;11039;50.028;19.938;2023-05-10T06:50:28;7.20;;;4.82;;
21754;SDS011;11039;50.028;19.938;2023-05-10T06:52:54;7.63;;;4.63;;
21754;SDS011;11039;50.028;19.938;2023-05-10T06:55:20;8.52;;;4.43;;
21754;SDS011;11039;50.028;19.938;2023-05-10T06:57:46;12.20;;;4.40;;
21754;SDS011;11039;50.028;19.938;2023-05-10T07:00:13;8.02;;;4.38;;
21754;SDS011;11039;50.028;19.938;2023-05-10T07:02:39;8.68;;;4.63;;
21754;SDS011;11039;50.028;19.938;2023-05-10T07:05:06;8.10;;;4.90;;
21754;SDS011;11039;50.028;19.938;2023-05-10T07:07:32;8.82;;;4.80;;
21754;SDS011;11039;50.028;19.938;2023-05-10T07:09:58;9.10;;;4.35;;
21754;SDS011;11039;50.028;19.938;2023-05-10T07:12:24;8.60;;;4.35;;
21754;SDS011;11039;50.028;19.938;2023-05-10T07:14:50;8.52;;;4.30;;
21754;SDS011;11039;50.028;19.938;2023-05-10T07:17:16;6.30;;;4.57;;
21754;SDS011;11039;50.028;19.938;2023-05-10T07:19:42;7.93;;;4.50;;
21754;SDS011;11039;50.028;19.938;2023-05-10T07:22:08;8.30;;;4.60;;
21754;SDS011;11039;50.028;19.938;2023-05-10T07:24:34;6.18;;;4.13;;
21754;SDS011;11039;50.028;19.938;2023-05-10T07:27:01;8.48;;;4.85;;
21754;SDS011;11039;50.028;19.938;2023-05-10T07:29:27;7.63;;;4.75;;
21754;SDS011;11039;50.028;19.938;2023-05-10T07:31:53;7.97;;;4.50;;
21754;SDS011;11039;50.028;19.938;2023-05-10T07:34:19;5.95;;;3.90;;
21754;SDS011;11039;50.028;19.938;2023-05-10T07:36:45;6.82;;;4.78;;
21754;SDS011;11039;50.028;19.938;2023-05-10T07:39:11;7.53;;;4.45;;
21754;SDS011;11039;50.028;19.938;2023-05-10T07:41:37;5.93;;;4.20;;
21754;SDS011;11039;50.028;19.938;2023-05-10T07:44:04;6.72;;;4.25;;
21754;SDS011;11039;50.028;19.938;2023-05-10T07:46:30;6.97;;;4.70;;
21754;SDS011;11039;50.028;19.938;2023-05-10T07:48:56;7.30;;;4.40;;
21754;SDS011;11039;50.028;19.938;2023-05-10T07:51:22;7.00;;;4.03;;
21754;SDS011;11039;50.028;19.938;2023-05-10T07:53:48;6.15;;;4.28;;
21754;SDS011;11039;50.028;19.938;2023-05-10T07:56:22;6.25;;;3.83;;
21754;SDS011;11039;50.028;19.938;2023-05-10T07:58:50;6.10;;;4.50;;
21754;SDS011;11039;50.028;19.938;2023-05-10T08:01:16;7.55;;;3.97;;
21754;SDS011;11039;50.028;19.938;2023-05-10T08:03:42;6.30;;;4.07;;
21754;SDS011;11039;50.028;19.938;2023-05-10T08:06:08;6.38;;;4.45;;
21754;SDS011;11039;50.028;19.938;2023-05-10T08:08:34;6.60;;;4.50;;
21754;SDS011;11039;50.028;19.938;2023-05-10T08:11:00;6.13;;;3.90;;
21754;SDS011;11039;50.028;19.938;2023-05-10T08:13:26;4.75;;;3.65;;
21754;SDS011;11039;50.028;19.938;2023-05-10T08:15:52;8.30;;;4.40;;
21754;SDS011;11039;50.028;19.938;2023-05-10T08:18:18;6.65;;;4.38;;
21754;SDS011;11039;50.028;19.938;2023-05-10T08:20:44;5.30;;;3.90;;
21754;SDS011;11039;50.028;19.938;2023-05-10T08:23:12;6.10;;;3.75;;
21754;SDS011;11039;50.028;19.938;2023-05-10T08:25:38;7.07;;;4.15;;
21754;SDS011;11039;50.028;19.938;2023-05-10T08:30:24;5.82;;;3.92;;
21754;SDS011;11039;50.028;19.938;2023-05-10T08:32:50;4.55;;;4.00;;
21754;SDS011;11039;50.028;19.938;2023-05-10T08:35:16;5.25;;;3.47;;
21754;SDS011;11039;50.028;19.938;2023-05-10T08:37:42;5.88;;;3.75;;
21754;SDS011;11039;50.028;19.938;2023-05-10T08:40:08;5.85;;;3.83;;
21754;SDS011;11039;50.028;19.938;2023-05-10T08:42:35;7.35;;;3.53;;
21754;SDS011;11039;50.028;19.938;2023-05-10T08:45:02;4.93;;;3.78;;
21754;SDS011;11039;50.028;19.938;2023-05-10T08:47:28;4.90;;;3.60;;
21754;SDS011;11039;50.028;19.938;2023-05-10T08:49:55;4.97;;;4.03;;
21754;SDS011;11039;50.028;19.938;2023-05-10T08:52:21;4.70;;;3.55;;
21754;SDS011;11039;50.028;19.938;2023-05-10T08:54:47;4.70;;;3.30;;
21754;SDS011;11039;50.028;19.938;2023-05-10T08:57:14;5.88;;;3.60;;
21754;SDS011;11039;50.028;19.938;2023-05-10T08:59:40;6.38;;;3.53;;
21754;SDS011;11039;50.028;19.938;2023-05-10T09:02:06;3.95;;;3.53;;
21754;SDS011;11039;50.028;19.938;2023-05-10T09:04:33;6.00;;;3.25;;
21754;SDS011;11039;50.028;19.938;2023-05-10T09:06:59;4.13;;;3.60;;
21754;SDS011;11039;50.028;19.938;2023-05-10T09:09:26;4.32;;;3.45;;
21754;SDS011;11039;50.028;19.938;2023-05-10T09:11:53;5.75;;;3.40;;
21754;SDS011;11039;50.028;19.938;2023-05-10T09:14:19;5.00;;;3.55;;
21754;SDS011;11039;50.028;19.938;2023-05-10T09:16:46;5.57;;;3.40;;
21754;SDS011;11039;50.028;19.938;2023-05-10T09:19:12;6.68;;;3.30;;
21754;SDS011;11039;50.028;19.938;2023-05-10T09:21:38;5.18;;;3.00;;
21754;SDS011;11039;50.028;19.938;2023-05-10T09:24:05;4.88;;;3.03;;
21754;SDS011;11039;50.028;19.938;2023-05-10T09:26:31;3.97;;;3.00;;
21754;SDS011;11039;50.028;19.938;2023-05-10T09:28:57;4.88;;;3.15;;
21754;SDS011;11039;50.028;19.938;2023-05-10T09:31:24;7.13;;;2.90;;
21754;SDS011;11039;50.028;19.938;2023-05-10T09:34:08;5.20;;;2.90;;
21754;SDS011;11039;50.028;19.938;2023-05-10T09:36:35;3.05;;;2.65;;
21754;SDS011;11039;50.028;19.938;2023-05-10T09:39:01;3.40;;;3.08;;
21754;SDS011;11039;50.028;19.938;2023-05-10T09:41:28;4.70;;;2.90;;
21754;SDS011;11039;50.028;19.938;2023-05-10T09:43:55;3.25;;;2.95;;
21754;SDS011;11039;50.028;19.938;2023-05-10T09:46:21;3.33;;;2.78;;
21754;SDS011;11039;50.028;19.938;2023-05-10T09:48:47;5.43;;;3.00;;
21754;SDS011;11039;50.028;19.938;2023-05-10T09:51:20;4.57;;;3.05;;
21754;SDS011;11039;50.028;19.938;2023-05-10T09:53:46;4.35;;;2.63;;
21754;SDS011;11039;50.028;19.938;2023-05-10T09:56:12;3.83;;;3.08;;
21754;SDS011;11039;50.028;19.938;2023-05-10T09:58:39;4.60;;;3.00;;
21754;SDS011;11039;50.028;19.938;2023-05-10T10:01:05;3.67;;;2.90;;
21754;SDS011;11039;50.028;19.938;2023-05-10T10:03:40;3.42;;;2.72;;
21754;SDS011;11039;50.028;19.938;2023-05-10T10:06:07;3.38;;;2.80;;
21754;SDS011;11039;50.028;19.938;2023-05-10T10:08:34;5.57;;;2.78;;
21754;SDS011;11039;50.028;19.938;2023-05-10T10:11:00;3.50;;;2.85;;
21754;SDS011;11039;50.028;19.938;2023-05-10T10:13:27;5.63;;;2.70;;
21754;SDS011;11039;50.028;19.938;2023-05-10T10:15:53;4.10;;;2.97;;
21754;SDS011;11039;50.028;19.938;2023-05-10T10:18:20;4.03;;;2.50;;
21754;SDS011;11039;50.028;19.938;2023-05-10T10:20:52;3.70;;;2.65;;
21754;SDS011;11039;50.028;19.938;2023-05-10T10:23:18;3.75;;;2.58;;
21754;SDS011;11039;50.028;19.938;2023-05-10T10:25:44;2.75;;;2.40;;
21754;SDS011;11039;50.028;19.938;2023-05-10T10:35:41;3.38;;;2.72;;
21754;SDS011;11039;50.028;19.938;2023-05-10T10:38:08;3.60;;;2.70;;
21754;SDS011;11039;50.028;19.938;2023-05-10T10:40:34;4.88;;;2.60;;
21754;SDS011;11039;50.028;19.938;2023-05-10T10:45:48;4.68;;;2.40;;
21754;SDS011;11039;50.028;19.938;2023-05-10T10:48:31;3.13;;;2.35;;
21754;SDS011;11039;50.028;19.938;2023-05-10T10:50:57;2.85;;;2.55;;
21754;SDS011;11039;50.028;19.938;2023-05-10T10:53:25;2.67;;;2.47;;
21754;SDS011;11039;50.028;19.938;2023-05-10T10:55:55;6.15;;;2.53;;
21754;SDS011;11039;50.028;19.938;2023-05-10T10:58:31;2.63;;;2.30;;
21754;SDS011;11039;50.028;19.938;2023-05-10T11:01:13;3.03;;;2.38;;
21754;SDS011;11039;50.028;19.938;2023-05-10T11:03:40;3.42;;;2.75;;
21754;SDS011;11039;50.028;19.938;2023-05-10T11:06:06;3.22;;;2.17;;
21754;SDS011;11039;50.028;19.938;2023-05-10T11:08:34;4.43;;;2.40;;
21754;SDS011;11039;50.028;19.938;2023-05-10T11:13:37;3.33;;;2.30;;
21754;SDS011;11039;50.028;19.938;2023-05-10T11:18:36;2.72;;;2.50;;
21754;SDS011;11039;50.028;19.938;2023-05-10T11:21:02;3.22;;;2.30;;
21754;SDS011;11039;50.028;19.938;2023-05-10T11:23:32;3.97;;;2.40;;
21754;SDS011;11039;50.028;19.938;2023-05-10T11:25:59;2.67;;;2.20;;
21754;SDS011;11039;50.028;19.938;2023-05-10T11:28:26;3.33;;;2.50;;
21754;SDS011;11039;50.028;19.938;2023-05-10T11:30:53;3.10;;;2.60;;
21754;SDS011;11039;50.028;19.938;2023-05-10T11:33:20;4.38;;;2.47;;
21754;SDS011;11039;50.028;19.938;2023-05-10T11:38:07;2.97;;;2.25;;
21754;SDS011;11039;50.028;19.938;2023-05-10T11:40:33;3.08;;;2.28;;
21754;SDS011;11039;50.028;19.938;2023-05-10T11:42:59;2.47;;;2.28;;
21754;SDS011;11039;50.028;19.938;2023-05-10T11:45:25;3.67;;;2.40;;
21754;SDS011;11039;50.028;19.938;2023-05-10T11:47:53;4.05;;;2.25;;
21754;SDS011;11039;50.028;19.938;2023-05-10T11:50:19;2.63;;;2.28;;
21754;SDS011;11039;50.028;19.938;2023-05-10T11:52:45;5.22;;;2.28;;
21754;SDS011;11039;50.028;19.938;2023-05-10T11:55:11;4.30;;;2.65;;
21754;SDS011;11039;50.028;19.938;2023-05-10T11:57:37;6.10;;;2.40;;
21754;SDS011;11039;50.028;19.938;2023-05-10T12:00:06;5.63;;;2.35;;
21754;SDS011;11039;50.028;19.938;2023-05-10T12:02:32;2.80;;;2.25;;
21754;SDS011;11039;50.028;19.938;2023-05-10T12:04:58;2.72;;;2.30;;
21754;SDS011;11039;50.028;19.938;2023-05-10T12:07:25;3.50;;;2.40;;
21754;SDS011;11039;50.028;19.938;2023-05-10T12:12:42;2.92;;;2.45;;
21754;SDS011;11039;50.028;19.938;2023-05-10T12:15:26;4.05;;;2.15;;
21754;SDS011;11039;50.028;19.938;2023-05-10T12:17:53;2.70;;;2.42;;
21754;SDS011;11039;50.028;19.938;2023-05-10T12:20:20;2.47;;;2.20;;
21754;SDS011;11039;50.028;19.938;2023-05-10T12:22:50;2.63;;;2.28;;
21754;SDS011;11039;50.028;19.938;2023-05-10T12:25:17;2.97;;;2.50;;
21754;SDS011;11039;50.028;19.938;2023-05-10T12:27:53;2.65;;;2.35;;
21754;SDS011;11039;50.028;19.938;2023-05-10T12:30:20;2.88;;;2.25;;
21754;SDS011;11039;50.028;19.938;2023-05-10T12:32:47;3.20;;;2.53;;
21754;SDS011;11039;50.028;19.938;2023-05-10T12:35:13;3.70;;;2.60;;
21754;SDS011;11039;50.028;19.938;2023-05-10T12:37:39;4.85;;;2.20;;
21754;SDS011;11039;50.028;19.938;2023-05-10T12:40:05;2.83;;;2.42;;
21754;SDS011;11039;50.028;19.938;2023-05-10T12:42:33;2.83;;;2.35;;
21754;SDS011;11039;50.028;19.938;2023-05-10T12:45:00;3.88;;;2.65;;
21754;SDS011;11039;50.028;19.938;2023-05-10T12:47:26;3.10;;;2.65;;
21754;SDS011;11039;50.028;19.938;2023-05-10T12:49:52;3.60;;;2.25;;
21754;SDS011;11039;50.028;19.938;2023-05-10T12:52:18;2.40;;;2.20;;
21754;SDS011;11039;50.028;19.938;2023-05-10T12:54:45;4.13;;;2.40;;
21754;SDS011;11039;50.028;19.938;2023-05-10T12:57:11;3.45;;;2.33;;
21754;SDS011;11039;50.028;19.938;2023-05-10T12:59:37;3.85;;;2.42;;
21754;SDS011;11039;50.028;19.938;2023-05-10T13:02:03;3.90;;;2.20;;
21754;SDS011;11039;50.028;19.938;2023-05-10T13:04:29;2.85;;;2.25;;
21754;SDS011;11039;50.028;19.938;2023-05-10T13:06:55;2.60;;;2.28;;
21754;SDS011;11039;50.028;19.938;2023-05-10T13:09:24;2.53;;;2.15;;
21754;SDS011;11039;50.028;19.938;2023-05-10T13:11:51;3.20;;;2.50;;
21754;SDS011;11039;50.028;19.938;2023-05-10T13:14:19;2.85;;;2.42;;
21754;SDS011;11039;50.028;19.938;2023-05-10T13:16:48;4.30;;;2.50;;
21754;SDS011;11039;50.028;19.938;2023-05-10T13:19:15;2.40;;;2.20;;
21754;SDS011;11039;50.028;19.938;2023-05-10T13:21:41;3.10;;;2.53;;
21754;SDS011;11039;50.028;19.938;2023-05-10T13:24:07;3.08;;;2.78;;
21754;SDS011;11039;50.028;19.938;2023-05-10T13:26:34;3.30;;;2.13;;
21754;SDS011;11039;50.028;19.938;2023-05-10T13:29:01;3.45;;;2.45;;
21754;SDS011;11039;50.028;19.938;2023-05-10T13:31:27;3.35;;;2.30;;
21754;SDS011;11039;50.028;19.938;2023-05-10T13:33:53;3.25;;;2.40;;
21754;SDS011;11039;50.028;19.938;2023-05-10T13:36:20;2.97;;;2.50;;
21754;SDS011;11039;50.028;19.938;2023-05-10T13:38:46;5.05;;;2.47;;
21754;SDS011;11039;50.028;19.938;2023-05-10T13:41:12;4.70;;;2.42;;
21754;SDS011;11039;50.028;19.938;2023-05-10T13:43:38;3.83;;;2.20;;
21754;SDS011;11039;50.028;19.938;2023-05-10T13:46:04;2.92;;;2.40;;
21754;SDS011;11039;50.028;19.938;2023-05-10T13:48:30;4.93;;;2.67;;
21754;SDS011;11039;50.028;19.938;2023-05-10T13:50:56;2.53;;;2.33;;
21754;SDS011;11039;50.028;19.938;2023-05-10T13:53:22;3.22;;;2.40;;
21754;SDS011;11039;50.028;19.938;2023-05-10T13:55:48;3.42;;;2.35;;
21754;SDS011;11039;50.028;19.938;2023-05-10T13:58:15;4.93;;;2.58;;
21754;SDS011;11039;50.028;19.938;2023-05-10T14:00:41;3.28;;;2.47;;
21754;SDS011;11039;50.028;19.938;2023-05-10T14:03:07;2.60;;;2.40;;
21754;SDS011;11039;50.028;19.938;2023-05-10T14:05:35;6.10;;;2.63;;
21754;SDS011;11039;50.028;19.938;2023-05-10T14:08:02;2.97;;;2.47;;
21754;SDS011;11039;50.028;19.938;2023-05-10T14:10:28;4.15;;;2.50;;
21754;SDS011;11039;50.028;19.938;2023-05-10T14:12:55;2.33;;;2.13;;
21754;SDS011;11039;50.028;19.938;2023-05-10T14:15:21;3.83;;;2.47;;
21754;SDS011;11039;50.028;19.938;2023-05-10T14:17:48;3.00;;;2.17;;
21754;SDS011;11039;50.028;19.938;2023-05-10T14:20:14;3.30;;;2.38;;
21754;SDS011;11039;50.028;19.938;2023-05-10T14:22:40;3.88;;;2.40;;
21754;SDS011;11039;50.028;19.938;2023-05-10T14:25:06;4.13;;;2.58;;
21754;SDS011;11039;50.028;19.938;2023-05-10T14:27:32;4.72;;;2.40;;
21754;SDS011;11039;50.028;19.938;2023-05-10T14:29:58;2.95;;;2.40;;
21754;SDS011;11039;50.028;19.938;2023-05-10T14:32:24;3.47;;;2.42;;
21754;SDS011;11039;50.028;19.938;2023-05-10T14:34:52;3.60;;;2.50;;
21754;SDS011;11039;50.028;19.938;2023-05-10T14:37:18;3.83;;;2.47;;
21754;SDS011;11039;50.028;19.938;2023-05-10T14:39:44;3.15;;;2.30;;
21754;SDS011;11039;50.028;19.938;2023-05-10T14:42:11;2.47;;;2.28;;
21754;SDS011;11039;50.028;19.938;2023-05-10T14:44:37;3.67;;;2.28;;
21754;SDS011;11039;50.028;19.938;2023-05-10T14:47:03;4.65;;;2.60;;
21754;SDS011;11039;50.028;19.938;2023-05-10T14:49:29;3.00;;;2.45;;
21754;SDS011;11039;50.028;19.938;2023-05-10T14:51:55;3.47;;;2.47;;
21754;SDS011;11039;50.028;19.938;2023-05-10T14:54:21;2.33;;;2.13;;
21754;SDS011;11039;50.028;19.938;2023-05-10T14:56:47;3.22;;;2.20;;
21754;SDS011;11039;50.028;19.938;2023-05-10T14:59:15;2.67;;;2.13;;
21754;SDS011;11039;50.028;19.938;2023-05-10T15:01:41;3.97;;;2.53;;
21754;SDS011;11039;50.028;19.938;2023-05-10T15:04:07;2.80;;;2.28;;
21754;SDS011;11039;50.028;19.938;2023-05-10T15:06:34;5.38;;;2.60;;
21754;SDS011;11039;50.028;19.938;2023-05-10T15:09:04;2.63;;;2.20;;
21754;SDS011;11039;50.028;19.938;2023-05-10T15:11:30;4.43;;;2.30;;
21754;SDS011;11039;50.028;19.938;2023-05-10T15:13:56;2.70;;;2.38;;
21754;SDS011;11039;50.028;19.938;2023-05-10T15:16:22;3.60;;;2.47;;